Time;durP1;ratioP1;P1;durP2;ratioP2;P2;SDS_P1;SDS_P2;PMS_P1;PMS_P2;Temp;Humidity;BMP_temperature;BMP_pressure;BME280_temperature;BME280_humidity;BME280_pressure;Samples;Min_cycle;Max_cycle;Signal;HPM_P1;HPM_P2
2023/08/10 00:01:01;;;;;;;1.05;1.00;;;;;;;16.08;72.70;96520.03;5013421;28;20128;-70
2023/08/10 00:03:33;;;;;;;1.98;1.42;;;;;;;16.04;72.57;96523.78;5013363;28;20459;-70
2023/08/10 00:06:00;;;;;;;1.92;1.13;;;;;;;16.02;72.38;96523.88;5013242;28;20484;-70
2023/08/10 00:08:29;;;;;;;1.45;1.00;;;;;;;16.02;72.03;96523.88;5013212;28;20041;-70
2023/08/10 00:10:57;;;;;;;6.18;1.48;;;;;;;15.93;72.36;96519.16;5013186;28;20042;-70
2023/08/10 00:13:24;;;;;;;1.88;1.45;;;;;;;15.91;72.27;96516.59;5013142;28;20054;-70
2023/08/10 00:15:53;;;;;;;1.17;1.08;;;;;;;15.86;72.42;96520.47;5013212;28;20053;-69
2023/08/10 00:18:21;;;;;;;3.95;1.23;;;;;;;15.78;72.73;96520.91;5013133;28;20046;-70
2023/08/10 00:20:48;;;;;;;5.05;1.38;;;;;;;15.73;73.16;96513.25;5013086;28;20045;-70
2023/08/10 00:23:17;;;;;;;3.70;1.63;;;;;;;15.69;73.47;96503.84;5013063;28;20133;-69
2023/08/10 00:25:44;;;;;;;1.25;1.15;;;;;;;15.68;73.35;96504.75;5012861;28;20056;-69
2023/08/10 00:28:12;;;;;;;7.18;1.48;;;;;;;15.70;72.63;96500.25;5012996;28;20042;-70
2023/08/10 00:30:39;;;;;;;1.23;1.13;;;;;;;15.77;72.68;96512.13;5013095;28;20046;-70
2023/08/10 00:33:08;;;;;;;1.92;1.30;;;;;;;15.78;72.31;96508.56;5012931;28;20068;-70
2023/08/10 00:35:39;;;;;;;1.40;1.15;;;;;;;15.71;72.08;96499.31;5012998;28;20116;-69
2023/08/10 00:38:07;;;;;;;1.80;1.20;;;;;;;15.65;72.71;96497.03;5012909;28;20438;-69
2023/08/10 00:40:35;;;;;;;1.63;1.20;;;;;;;15.61;72.50;96495.53;5013025;28;20077;-69
2023/08/10 00:43:02;;;;;;;1.73;1.15;;;;;;;15.60;72.45;96492.06;5012993;28;20089;-69
2023/08/10 00:45:30;;;;;;;3.08;1.00;;;;;;;15.58;72.52;96483.38;5012946;28;20053;-70
2023/08/10 00:47:57;;;;;;;2.03;0.95;;;;;;;15.56;73.40;96482.63;5012868;28;20050;-69
2023/08/10 00:50:26;;;;;;;1.08;0.98;;;;;;;15.56;73.39;96485.25;5012590;28;20550;-69
2023/08/10 00:52:53;;;;;;;1.48;1.05;;;;;;;15.60;73.01;96483.28;5014955;28;20046;-69
2023/08/10 00:55:20;;;;;;;1.65;1.20;;;;;;;15.55;72.88;96478.28;5016590;28;20096;-69
2023/08/10 00:57:47;;;;;;;1.40;1.30;;;;;;;15.49;73.16;96487.41;5016417;28;20048;-69
2023/08/10 01:00:15;;;;;;;3.63;1.30;;;;;;;15.48;73.56;96490.13;5016299;28;20054;-69
2023/08/10 01:02:42;;;;;;;1.73;1.02;;;;;;;15.42;74.21;96486.09;5016312;28;20492;-69
2023/08/10 01:05:12;;;;;;;1.40;1.27;;;;;;;15.39;74.39;96479.19;5016310;28;20081;-69
2023/08/10 01:07:49;;;;;;;1.40;1.30;;;;;;;15.38;74.13;96482.75;5016087;28;20053;-69
2023/08/10 01:10:23;;;;;;;2.22;1.10;;;;;;;15.39;73.97;96499.44;5016428;28;20085;-68
2023/08/10 01:12:54;;;;;;;1.80;1.17;;;;;;;15.43;73.40;96495.69;5016159;28;20053;-68
2023/08/10 01:15:33;;;;;;;1.60;1.05;;;;;;;15.36;73.20;96491.72;5016122;28;20054;-69
2023/08/10 01:18:03;;;;;;;1.63;1.30;;;;;;;15.33;73.57;96492.75;5016054;28;20403;-69
2023/08/10 01:20:32;;;;;;;1.77;1.30;;;;;;;15.29;73.65;96488.56;5015978;28;20460;-69
2023/08/10 01:23:15;;;;;;;1.33;1.20;;;;;;;15.33;73.63;96495.38;5015927;28;20408;-69
2023/08/10 01:25:44;;;;;;;1.20;1.10;;;;;;;15.32;73.33;96492.81;5015813;28;20074;-70
2023/08/10 01:28:13;;;;;;;1.73;1.30;;;;;;;15.32;73.35;96491.03;5015864;28;20046;-68
2023/08/10 01:30:41;;;;;;;1.25;1.10;;;;;;;15.38;73.35;96498.56;5015913;28;20061;-69
2023/08/10 01:33:08;;;;;;;2.45;1.20;;;;;;;15.35;73.35;96490.84;5015641;28;20403;-68
2023/08/10 01:35:37;;;;;;;4.38;1.10;;;;;;;15.36;73.10;96489.06;5015786;28;20104;-69
2023/08/10 01:38:04;;;;;;;1.50;1.30;;;;;;;15.32;72.68;96492.81;5015666;28;20484;-69
2023/08/10 01:40:32;;;;;;;1.52;1.15;;;;;;;15.17;73.70;96484.84;5015706;28;20111;-69
2023/08/10 01:43:02;;;;;;;1.50;1.40;;;;;;;15.14;73.78;96483.25;5015546;28;20530;-69
2023/08/10 01:45:29;;;;;;;1.40;1.30;;;;;;;15.15;73.50;96474.41;5015587;28;20137;-69
2023/08/10 01:48:01;;;;;;;1.33;1.10;;;;;;;15.18;73.83;96467.25;5015619;28;20104;-69
2023/08/10 01:50:34;;;;;;;2.03;0.93;;;;;;;15.11;73.73;96462.34;5015607;28;20104;-69
2023/08/10 01:53:08;;;;;;;1.58;1.10;;;;;;;15.13;73.65;96457.84;5015480;28;20061;-69
2023/08/10 01:55:35;;;;;;;2.05;1.33;;;;;;;15.08;73.81;96452.00;5015459;28;20072;-69
2023/08/10 01:58:04;;;;;;;1.90;1.20;;;;;;;15.05;73.64;96457.44;5015365;28;20054;-69
2023/08/10 02:00:33;;;;;;;1.33;1.20;;;;;;;15.02;73.92;96463.72;5015300;28;20052;-68
2023/08/10 02:03:00;;;;;;;2.10;1.23;;;;;;;14.97;74.40;96454.41;5015057;28;20052;-69
2023/08/10 02:05:27;;;;;;;1.35;1.20;;;;;;;14.99;74.56;96457.81;5014621;28;20050;-69
2023/08/10 02:07:54;;;;;;;3.45;1.02;;;;;;;15.00;74.18;96459.50;5015151;28;20050;-69
2023/08/10 02:10:22;;;;;;;1.63;1.45;;;;;;;15.00;73.99;96459.50;5015072;28;20052;-69
2023/08/10 02:12:49;;;;;;;1.08;0.98;;;;;;;14.91;74.05;96464.34;5014929;28;20046;-69
2023/08/10 02:15:17;;;;;;;1.40;1.30;;;;;;;14.88;74.67;96469.81;5015051;28;20081;-69
2023/08/10 02:17:44;;;;;;;1.30;1.20;;;;;;;14.90;74.49;96467.91;5015004;28;20061;-69
2023/08/10 02:20:13;;;;;;;2.00;1.20;;;;;;;14.99;74.67;96465.72;5014955;28;20459;-69
2023/08/10 02:22:42;;;;;;;1.73;1.60;;;;;;;15.02;74.45;96455.81;5014779;28;20450;-69
2023/08/10 02:25:10;;;;;;;3.53;1.30;;;;;;;15.06;74.27;96450.38;5014560;28;20052;-69
2023/08/10 02:27:39;;;;;;;3.25;1.58;;;;;;;15.08;74.02;96449.34;5014745;28;20076;-69
2023/08/10 02:30:07;;;;;;;2.45;1.48;;;;;;;15.09;74.06;96452.84;5014751;28;20054;-69
2023/08/10 02:32:36;;;;;;;3.45;1.10;;;;;;;15.05;74.09;96453.97;5014567;28;20053;-69
2023/08/10 02:35:04;;;;;;;3.90;1.17;;;;;;;15.05;73.91;96459.22;5014568;28;20050;-69
2023/08/10 02:37:32;;;;;;;2.70;1.33;;;;;;;15.03;74.61;96460.16;5014533;28;20092;-69
2023/08/10 02:39:59;;;;;;;1.25;1.15;;;;;;;14.98;75.48;96464.00;5014621;28;20133;-69
2023/08/10 02:42:26;;;;;;;1.50;1.20;;;;;;;14.99;75.42;96466.53;5014503;28;20486;-69
2023/08/10 02:44:53;;;;;;;1.42;1.33;;;;;;;14.95;75.30;96470.28;5014364;28;20046;-70
2023/08/10 02:47:20;;;;;;;1.30;1.20;;;;;;;14.99;74.91;96468.34;5014375;28;20046;-69
2023/08/10 02:49:48;;;;;;;1.80;1.30;;;;;;;14.98;74.96;96467.47;5014344;28;20085;-69
2023/08/10 02:52:16;;;;;;;3.15;1.10;;;;;;;15.00;74.96;96467.41;5014344;28;20545;-68
2023/08/10 02:54:43;;;;;;;3.63;1.58;;;;;;;14.98;75.02;96478.00;5014428;28;20133;-69
2023/08/10 02:57:10;;;;;;;1.15;1.05;;;;;;;14.99;75.21;96477.06;5014216;28;20056;-69
2023/08/10 02:59:37;;;;;;;1.10;1.00;;;;;;;15.03;75.13;96488.28;5014284;28;20124;-69
2023/08/10 03:02:05;;;;;;;1.77;1.30;;;;;;;15.05;75.40;96489.03;5014221;28;20133;-69
2023/08/10 03:04:32;;;;;;;1.40;1.30;;;;;;;15.08;75.34;96483.59;5014090;28;20056;-69
2023/08/10 03:07:01;;;;;;;2.15;1.35;;;;;;;15.13;75.44;96467.53;5014362;28;20053;-69
2023/08/10 03:09:29;;;;;;;1.83;1.38;;;;;;;15.15;75.09;96473.56;5014256;28;20049;-69
2023/08/10 03:11:56;;;;;;;6.00;1.20;;;;;;;15.11;74.87;96470.25;5014053;28;20125;-69
2023/08/10 03:14:23;;;;;;;2.08;1.40;;;;;;;15.00;75.49;96465.63;5013934;28;20050;-69
2023/08/10 03:16:50;;;;;;;2.00;1.50;;;;;;;14.93;76.20;96463.41;5014056;28;20072;-70
2023/08/10 03:19:19;;;;;;;1.50;1.38;;;;;;;14.91;76.34;96468.78;5013797;28;20470;-68
2023/08/10 03:21:47;;;;;;;2.90;1.15;;;;;;;14.95;76.02;96477.31;5013895;28;20100;-69
2023/08/10 03:24:16;;;;;;;1.60;1.50;;;;;;;14.99;75.91;96481.50;5013812;28;20060;-70
2023/08/10 03:26:44;;;;;;;1.58;1.48;;;;;;;15.00;75.67;96484.06;5013640;28;20120;-70
2023/08/10 03:29:11;;;;;;;2.42;1.40;;;;;;;14.93;75.76;96480.03;5013690;28;20060;-70
2023/08/10 03:31:38;;;;;;;1.85;1.30;;;;;;;14.89;76.14;96475.91;5013690;28;20061;-68
2023/08/10 03:34:05;;;;;;;3.47;1.25;;;;;;;14.94;76.38;96468.59;5013579;28;20132;-68
2023/08/10 03:36:33;;;;;;;2.60;1.40;;;;;;;14.96;76.38;96465.88;5013668;28;20050;-68
2023/08/10 03:39:00;;;;;;;2.95;1.42;;;;;;;14.97;76.53;96462.31;5013554;28;20120;-69
2023/08/10 03:41:28;;;;;;;1.48;1.38;;;;;;;14.98;76.38;96469.25;5013595;28;20050;-69
2023/08/10 03:43:56;;;;;;;2.67;1.48;;;;;;;14.95;77.02;96472.91;5013463;28;20053;-68
2023/08/10 03:46:23;;;;;;;1.85;1.40;;;;;;;14.97;77.19;96472.84;5013459;28;20053;-69
2023/08/10 03:48:50;;;;;;;2.33;1.20;;;;;;;14.98;77.79;96477.16;5013666;28;20054;-69
2023/08/10 03:51:18;;;;;;;1.40;1.30;;;;;;;15.06;78.06;96482.00;5013387;28;20054;-69
2023/08/10 03:53:45;;;;;;;2.30;1.40;;;;;;;15.13;77.93;96484.19;5013186;28;20506;-69
2023/08/10 03:56:13;;;;;;;1.30;1.20;;;;;;;15.20;77.51;96482.03;5013346;28;20496;-69
2023/08/10 03:58:42;;;;;;;1.98;1.20;;;;;;;15.21;77.29;96480.25;5013283;28;20057;-69
2023/08/10 04:01:09;;;;;;;1.77;1.25;;;;;;;15.25;77.18;96476.50;5013352;28;20050;-69
2023/08/10 04:03:36;;;;;;;2.72;1.27;;;;;;;15.27;77.17;96472.84;5013173;28;20089;-70
2023/08/10 04:06:04;;;;;;;1.73;1.20;;;;;;;15.33;77.44;96468.16;5013239;28;20120;-69
2023/08/10 04:08:31;;;;;;;4.68;1.60;;;;;;;15.35;77.51;96469.75;5013186;28;20065;-70
2023/08/10 04:10:59;;;;;;;3.40;1.70;;;;;;;15.37;77.75;96465.25;5013205;28;20060;-69
2023/08/10 04:13:26;;;;;;;3.63;1.40;;;;;;;15.43;78.06;96455.28;5013299;28;20049;-69
2023/08/10 04:15:56;;;;;;;1.70;1.40;;;;;;;15.51;77.96;96450.41;5013287;28;20486;-69
2023/08/10 04:18:23;;;;;;;3.55;1.15;;;;;;;15.61;78.03;96453.34;5013482;28;20480;-68
2023/08/10 04:20:50;;;;;;;3.70;1.38;;;;;;;15.69;77.50;96452.91;5013539;28;20061;-69
2023/08/10 04:23:19;;;;;;;3.22;1.30;;;;;;;15.74;77.88;96446.41;5013460;28;20129;-69
2023/08/10 04:25:46;;;;;;;1.02;1.02;;;;;;;15.84;77.48;96459.88;5012964;28;20046;-69
2023/08/10 04:28:13;;;;;;;1.33;1.20;;;;;;;15.95;77.52;96459.22;5015929;28;20089;-69
2023/08/10 04:30:44;;;;;;;3.38;1.35;;;;;;;16.01;77.67;96458.00;5016930;28;20042;-68
2023/08/10 04:33:13;;;;;;;2.92;1.27;;;;;;;16.06;77.50;96458.59;5016980;28;20054;-69
2023/08/10 04:35:41;;;;;;;3.53;1.50;;;;;;;16.11;77.25;96455.69;5016994;28;20141;-69
2023/08/10 04:38:10;;;;;;;1.50;1.40;;;;;;;16.18;77.19;96454.34;5016807;28;20061;-69
2023/08/10 04:40:39;;;;;;;1.60;1.13;;;;;;;16.37;77.32;96453.19;5016887;28;20052;-69
2023/08/10 04:43:08;;;;;;;1.58;1.30;;;;;;;16.46;76.91;96452.59;5016831;28;20046;-69
2023/08/10 04:45:35;;;;;;;2.92;1.60;;;;;;;16.55;76.45;96448.53;5016845;28;20100;-69
2023/08/10 04:48:02;;;;;;;2.25;1.42;;;;;;;16.72;76.54;96465.09;5016722;28;20046;-69
2023/08/10 04:50:31;;;;;;;4.05;1.30;;;;;;;16.91;76.49;96467.38;5016767;28;20104;-69
2023/08/10 04:52:58;;;;;;;1.50;1.40;;;;;;;17.04;76.89;96468.28;5016717;28;20066;-69
2023/08/10 04:55:26;;;;;;;2.72;1.30;;;;;;;17.14;75.60;96473.88;5016708;28;20049;-68
2023/08/10 04:57:53;;;;;;;2.45;1.00;;;;;;;17.29;75.29;96477.28;5016451;28;20112;-69
2023/08/10 05:00:23;;;;;;;1.77;1.30;;;;;;;17.57;74.28;96474.56;5016426;28;20127;-70
2023/08/10 05:02:50;;;;;;;2.45;1.15;;;;;;;18.02;73.91;96476.81;5016482;28;20054;-69
2023/08/10 05:05:18;;;;;;;3.42;1.30;;;;;;;18.58;71.80;96484.50;5016435;28;20128;-69
2023/08/10 05:07:47;;;;;;;2.13;1.00;;;;;;;19.10;69.48;96479.06;5016281;28;20049;-69
2023/08/10 05:10:15;;;;;;;2.33;1.02;;;;;;;19.69;67.58;96482.66;5016296;28;20161;-69
2023/08/10 05:12:42;;;;;;;6.07;1.10;;;;;;;20.43;66.10;96491.19;5016075;28;20046;-69
2023/08/10 05:15:11;;;;;;;0.93;0.77;;;;;;;21.15;61.49;96497.03;5016198;28;20140;-70
2023/08/10 05:17:39;;;;;;;1.15;0.90;;;;;;;21.87;60.42;96491.16;5016136;28;20550;-70
2023/08/10 05:20:10;;;;;;;1.30;0.90;;;;;;;22.62;57.97;96490.13;5016087;28;20103;-70
2023/08/10 05:22:38;;;;;;;0.88;0.80;;;;;;;23.35;55.53;96488.13;5016090;28;20134;-69
2023/08/10 05:25:08;;;;;;;1.42;1.00;;;;;;;24.06;54.76;96495.97;5015769;28;20057;-70
2023/08/10 05:27:36;;;;;;;0.95;0.80;;;;;;;24.59;52.07;96491.03;5015996;28;20097;-69
2023/08/10 05:30:03;;;;;;;1.40;1.00;;;;;;;25.12;48.56;96504.69;5015981;28;20050;-69
2023/08/10 05:32:31;;;;;;;4.30;1.20;;;;;;;25.63;47.30;96503.34;5015914;28;20050;-69
2023/08/10 05:34:58;;;;;;;1.90;1.17;;;;;;;25.84;46.86;96501.19;5015910;28;20042;-69
2023/08/10 05:37:25;;;;;;;1.90;1.08;;;;;;;26.19;46.96;96511.13;5015719;28;20141;-70
2023/08/10 05:39:53;;;;;;;3.70;0.85;;;;;;;26.42;44.76;96499.88;5014484;28;20046;-69
2023/08/10 05:42:21;;;;;;;2.72;0.90;;;;;;;26.66;45.39;96501.84;5015648;28;20194;-69
2023/08/10 05:44:49;;;;;;;1.90;1.00;;;;;;;26.97;44.75;96506.63;5015615;28;20100;-68
2023/08/10 05:47:17;;;;;;;3.22;0.90;;;;;;;27.31;43.43;96502.25;5015619;28;20137;-69
2023/08/10 05:49:44;;;;;;;2.55;1.00;;;;;;;27.68;44.35;96504.63;5015762;28;20045;-69
2023/08/10 05:52:11;;;;;;;2.38;1.13;;;;;;;27.94;42.09;96507.16;5015378;28;20088;-69
2023/08/10 05:54:39;;;;;;;2.42;0.60;;;;;;;28.13;41.35;96508.63;5015387;28;20408;-69
2023/08/10 05:57:06;;;;;;;2.28;0.90;;;;;;;28.34;40.82;96509.97;5015524;28;20132;-69
2023/08/10 05:59:35;;;;;;;1.30;1.02;;;;;;;28.66;39.80;96506.50;5015387;28;20052;-69
2023/08/10 06:02:02;;;;;;;2.05;0.82;;;;;;;28.96;38.86;96493.28;5015408;28;20049;-69
2023/08/10 06:04:29;;;;;;;1.20;0.93;;;;;;;28.91;38.44;96493.78;5015204;28;20132;-69
2023/08/10 06:06:56;;;;;;;3.13;1.02;;;;;;;29.04;38.09;96490.53;5015131;28;20141;-69
2023/08/10 06:09:23;;;;;;;3.72;1.13;;;;;;;29.02;38.19;96487.19;5015075;28;20384;-69
2023/08/10 06:11:51;;;;;;;1.30;0.93;;;;;;;29.01;38.33;96488.19;5015166;28;20046;-69
2023/08/10 06:14:19;;;;;;;0.82;0.82;;;;;;;29.08;38.51;96489.16;5015104;28;20464;-69
2023/08/10 06:16:47;;;;;;;2.53;0.95;;;;;;;28.94;37.20;96487.22;5015083;28;20073;-69
2023/08/10 06:19:14;;;;;;;1.33;1.15;;;;;;;28.79;37.21;96496.03;5014947;28;20124;-69
2023/08/10 06:21:42;;;;;;;3.50;0.80;;;;;;;28.68;38.68;96491.03;5014773;28;20057;-69
2023/08/10 06:24:09;;;;;;;2.83;0.80;;;;;;;28.66;38.44;96488.53;5014974;28;20042;-69
2023/08/10 06:26:37;;;;;;;1.33;0.95;;;;;;;28.57;39.64;96489.56;5014767;28;20108;-69
2023/08/10 06:29:04;;;;;;;1.17;1.02;;;;;;;28.44;37.91;96482.06;5014738;28;20042;-69
2023/08/10 06:31:32;;;;;;;3.17;1.20;;;;;;;28.34;37.32;96484.91;5014928;28;20060;-69
2023/08/10 06:34:02;;;;;;;0.98;0.80;;;;;;;28.28;38.57;96480.19;5014633;28;20066;-69
2023/08/10 06:36:30;;;;;;;5.32;1.20;;;;;;;28.26;39.08;96473.16;5014733;28;20108;-69
2023/08/10 06:38:57;;;;;;;3.90;1.05;;;;;;;28.16;38.58;96483.25;5014761;28;20125;-69
2023/08/10 06:41:25;;;;;;;2.00;0.90;;;;;;;27.71;36.13;96478.28;5014713;28;20046;-69
2023/08/10 06:43:52;;;;;;;5.50;1.02;;;;;;;27.39;36.85;96485.28;5014602;28;20124;-69
2023/08/10 06:46:19;;;;;;;3.65;0.93;;;;;;;27.10;37.93;96492.81;5014550;28;20057;-69
2023/08/10 06:48:47;;;;;;;2.10;1.10;;;;;;;26.74;38.42;96479.56;5014313;28;20054;-69
2023/08/10 06:51:15;;;;;;;2.25;0.80;;;;;;;26.44;38.71;96482.66;5014026;28;20050;-69
2023/08/10 06:53:43;;;;;;;1.05;0.90;;;;;;;26.24;39.06;96484.69;5014413;28;20112;-69
2023/08/10 06:56:10;;;;;;;2.72;1.00;;;;;;;25.81;40.81;96489.94;5014581;28;20088;-69
2023/08/10 06:58:37;;;;;;;1.20;1.10;;;;;;;25.46;39.08;96490.63;5014591;28;20085;-69
2023/08/10 07:01:05;;;;;;;2.58;1.23;;;;;;;25.39;38.42;96488.72;5014538;28;20464;-69
2023/08/10 07:03:35;;;;;;;3.03;1.00;;;;;;;25.30;39.67;96490.47;5014389;28;20061;-69
2023/08/10 07:06:02;;;;;;;1.67;1.10;;;;;;;25.21;40.11;96492.22;5014640;28;20074;-69
2023/08/10 07:08:32;;;;;;;1.85;1.25;;;;;;;25.20;40.95;96486.03;5014541;28;20515;-69
2023/08/10 07:11:02;;;;;;;2.05;0.98;;;;;;;25.16;38.96;96491.84;5014344;28;20045;-69
2023/08/10 07:13:30;;;;;;;1.60;1.33;;;;;;;25.26;39.85;96497.97;5014166;28;20058;-69
2023/08/10 07:15:57;;;;;;;1.58;1.40;;;;;;;25.07;40.77;96496.28;5014187;28;20046;-69
2023/08/10 07:18:24;;;;;;;6.22;1.13;;;;;;;25.19;38.99;96504.94;5014451;28;20123;-69
2023/08/10 07:20:51;;;;;;;2.20;1.50;;;;;;;25.17;38.38;96501.56;5014608;28;20073;-69
2023/08/10 07:23:20;;;;;;;4.03;1.10;;;;;;;24.95;39.38;96504.50;5014313;28;20126;-69
2023/08/10 07:25:48;;;;;;;1.40;1.30;;;;;;;24.75;40.56;96498.41;5014040;28;20092;-69
2023/08/10 07:28:16;;;;;;;4.57;1.35;;;;;;;24.64;40.18;96501.25;5014327;28;20050;-69
2023/08/10 07:30:47;;;;;;;1.15;1.10;;;;;;;24.60;40.50;96498.88;5014257;28;20050;-69
2023/08/10 07:33:14;;;;;;;1.40;1.17;;;;;;;24.58;39.93;96497.34;5013947;28;20104;-69
2023/08/10 07:35:41;;;;;;;1.80;1.02;;;;;;;24.68;39.23;96494.66;5014105;28;20127;-69
2023/08/10 07:38:09;;;;;;;2.15;1.35;;;;;;;24.79;40.73;96493.59;5013994;28;20081;-69
2023/08/10 07:40:36;;;;;;;4.00;1.27;;;;;;;24.59;39.29;96486.50;5014171;28;20045;-69
2023/08/10 07:43:06;;;;;;;1.50;1.30;;;;;;;24.45;42.01;96492.34;5013986;28;20093;-69
2023/08/10 07:45:33;;;;;;;2.85;1.15;;;;;;;24.55;40.30;96494.97;5013798;28;20056;-69
2023/08/10 07:48:00;;;;;;;1.30;1.20;;;;;;;24.61;40.36;96500.59;5013867;28;20096;-69
2023/08/10 07:50:28;;;;;;;4.00;1.25;;;;;;;24.77;40.35;96506.28;5013714;28;20147;-69
2023/08/10 07:52:55;;;;;;;3.17;0.88;;;;;;;24.97;38.57;96499.00;5013569;28;20081;-69
2023/08/10 07:55:22;;;;;;;1.63;1.52;;;;;;;25.12;38.58;96499.34;5013412;28;20053;-69
2023/08/10 07:57:50;;;;;;;3.83;1.55;;;;;;;25.36;39.86;96495.22;5013650;28;20054;-69
2023/08/10 08:00:20;;;;;;;1.42;1.05;;;;;;;25.77;41.46;96491.25;5013571;28;20132;-69
2023/08/10 08:02:49;;;;;;;4.60;1.23;;;;;;;26.06;38.90;96498.13;5012651;28;20050;-69
2023/08/10 08:05:17;;;;;;;4.72;1.35;;;;;;;26.34;37.59;96500.69;5013428;28;20054;-69
2023/08/10 08:07:44;;;;;;;2.33;1.17;;;;;;;26.69;37.70;96504.19;5013428;28;20046;-69
2023/08/10 08:10:12;;;;;;;1.45;1.00;;;;;;;27.20;36.85;96507.91;5013303;28;20543;-69
2023/08/10 08:12:39;;;;;;;5.10;1.20;;;;;;;27.44;34.47;96506.25;5013341;28;20050;-69
2023/08/10 08:15:07;;;;;;;1.52;1.15;;;;;;;27.71;35.19;96497.09;5013260;28;20053;-69
2023/08/10 08:18:08;;;;;;;1.10;0.80;;;;;;;28.20;34.85;96495.34;5013244;28;20081;-69
2023/08/10 08:20:37;;;;;;;1.27;1.00;;;;;;;28.67;35.49;96492.88;5013399;28;20506;-69
2023/08/10 08:23:05;;;;;;;6.28;1.13;;;;;;;28.83;34.21;96494.66;5013592;28;20045;-69
2023/08/10 08:25:32;;;;;;;3.88;1.40;;;;;;;28.56;32.86;96501.34;5013125;28;20403;-69
2023/08/10 08:27:59;;;;;;;3.05;1.00;;;;;;;28.36;32.32;96509.78;5013147;28;20078;-69
2023/08/10 08:30:27;;;;;;;2.55;1.30;;;;;;;28.16;30.93;96511.97;5013205;28;20060;-69
2023/08/10 08:32:54;;;;;;;1.50;1.08;;;;;;;27.97;30.01;96506.81;5013590;28;20053;-69
2023/08/10 08:35:22;;;;;;;1.08;0.88;;;;;;;27.42;31.10;96506.41;5013067;28;20054;-69
2023/08/10 08:37:50;;;;;;;5.25;1.20;;;;;;;26.84;33.09;96500.91;5012973;28;20484;-69
2023/08/10 08:40:17;;;;;;;1.25;1.05;;;;;;;26.67;33.18;96494.66;5013101;28;20105;-69
2023/08/10 08:42:45;;;;;;;2.35;1.10;;;;;;;26.42;33.53;96492.69;5012980;28;20076;-69
2023/08/10 08:45:12;;;;;;;1.65;1.10;;;;;;;26.54;34.69;96500.44;5013016;28;20049;-69
2023/08/10 08:47:40;;;;;;;2.42;1.13;;;;;;;26.58;34.63;96497.28;5012999;28;20077;-69
2023/08/10 08:50:09;;;;;;;1.60;1.15;;;;;;;26.42;32.84;96503.41;5012898;28;20045;-69
2023/08/10 08:52:36;;;;;;;1.48;0.90;;;;;;;26.29;34.73;96506.53;5013078;28;20064;-68
2023/08/10 08:55:06;;;;;;;2.35;1.10;;;;;;;26.25;34.24;96503.28;5012990;28;20480;-69
2023/08/10 08:57:33;;;;;;;2.10;1.40;;;;;;;26.14;35.38;96495.50;5012880;28;20133;-69
2023/08/10 09:00:01;;;;;;;1.13;1.02;;;;;;;26.03;35.64;96493.94;5013054;28;20049;-69
2023/08/10 09:02:29;;;;;;;1.15;1.05;;;;;;;25.71;35.60;96495.38;5012711;28;20046;-68
2023/08/10 09:04:59;;;;;;;1.27;1.05;;;;;;;25.47;34.27;96494.16;5012705;28;20050;-69
2023/08/10 09:07:26;;;;;;;1.40;1.17;;;;;;;25.41;34.40;96503.66;5012864;28;20045;-69
2023/08/10 09:09:54;;;;;;;3.05;1.10;;;;;;;25.50;33.77;96504.56;5013089;28;20053;-69
2023/08/10 09:12:34;;;;;;;3.22;1.05;;;;;;;25.83;34.04;96504.00;5013043;28;20072;-69
2023/08/10 09:15:03;;;;;;;2.25;1.02;;;;;;;26.12;33.53;96494.81;5016243;28;20054;-69
2023/08/10 09:17:31;;;;;;;2.13;1.13;;;;;;;26.37;34.85;96501.19;5016366;28;20050;-68
2023/08/10 09:19:58;;;;;;;3.78;1.10;;;;;;;26.71;33.44;96499.53;5016150;28;20081;-69
2023/08/10 09:22:32;;;;;;;2.90;0.90;;;;;;;26.60;34.48;96492.59;5016219;28;20057;-69
2023/08/10 09:24:59;;;;;;;0.93;0.93;;;;;;;26.53;33.30;96498.75;5016038;28;20060;-69
2023/08/10 09:27:28;;;;;;;3.35;1.00;;;;;;;26.34;34.01;96490.78;5016222;28;20046;-69
2023/08/10 09:30:02;;;;;;;1.17;1.08;;;;;;;26.27;33.50;96489.72;5016117;28;20057;-69
2023/08/10 09:32:29;;;;;;;1.38;1.00;;;;;;;26.12;33.47;96484.94;5016145;28;20120;-69
2023/08/10 09:34:57;;;;;;;4.20;1.30;;;;;;;25.75;35.30;96480.69;5015941;28;20057;-69
2023/08/10 09:37:24;;;;;;;1.27;1.08;;;;;;;25.68;37.02;96483.16;5016170;28;20084;-69
2023/08/10 09:39:55;;;;;;;1.40;1.00;;;;;;;25.71;34.17;96473.97;5015619;28;20140;-68
2023/08/10 09:42:22;;;;;;;1.10;1.00;;;;;;;25.55;35.58;96471.97;5015781;28;20050;-69
2023/08/10 09:44:52;;;;;;;1.77;0.70;;;;;;;25.54;35.86;96470.28;5015713;28;20169;-69
2023/08/10 09:47:21;;;;;;;3.70;1.00;;;;;;;25.85;35.43;96473.38;5015738;28;20081;-69
2023/08/10 09:49:56;;;;;;;3.28;1.17;;;;;;;26.15;36.23;96464.22;5015602;28;20484;-68
2023/08/10 09:52:24;;;;;;;3.55;1.27;;;;;;;26.02;35.64;96470.81;5015510;28;20050;-69
2023/08/10 09:54:52;;;;;;;3.40;1.10;;;;;;;26.01;36.12;96479.88;5015320;28;20136;-69
2023/08/10 09:57:20;;;;;;;1.60;1.30;;;;;;;26.19;35.01;96477.09;5015456;28;20599;-68
2023/08/10 09:59:48;;;;;;;2.53;0.95;;;;;;;26.24;34.13;96474.81;5015429;28;20049;-68
2023/08/10 10:02:17;;;;;;;3.55;0.98;;;;;;;26.37;35.60;96478.94;5015232;28;20088;-68
2023/08/10 10:04:46;;;;;;;3.38;1.05;;;;;;;26.64;33.26;96474.34;5015523;28;20042;-69
2023/08/10 10:07:16;;;;;;;1.33;0.95;;;;;;;26.88;32.81;96473.59;5015456;28;20120;-69
2023/08/10 10:09:44;;;;;;;1.87;0.83;;;;;;;27.01;33.06;96477.69;5015254;28;20046;-69
2023/08/10 10:12:13;;;;;;;1.75;0.80;;;;;;;26.91;30.86;96479.63;5015111;28;20832;-68
2023/08/10 10:14:43;;;;;;;0.77;0.60;;;;;;;26.73;31.39;96473.38;5015005;28;20050;-69
2023/08/10 10:17:12;;;;;;;1.67;0.80;;;;;;;26.63;29.39;96467.28;5015104;28;20395;-69
2023/08/10 10:19:41;;;;;;;1.20;0.68;;;;;;;26.66;31.02;96466.16;5014998;28;20053;-68
2023/08/10 10:22:11;;;;;;;3.50;0.70;;;;;;;26.72;29.72;96469.00;5015182;28;20100;-69
2023/08/10 10:24:42;;;;;;;0.40;0.40;;;;;;;26.58;30.06;96459.72;5014056;28;20116;-69
2023/08/10 10:27:12;;;;;;;0.98;0.88;;;;;;;26.41;30.97;96455.31;5015139;28;20045;-68
2023/08/10 10:29:41;;;;;;;0.65;0.65;;;;;;;26.34;30.29;96457.81;5014874;28;20042;-69
2023/08/10 10:32:14;;;;;;;1.42;0.82;;;;;;;26.12;30.65;96452.78;5014788;28;20479;-68
2023/08/10 10:34:43;;;;;;;1.05;0.80;;;;;;;26.09;31.61;96450.44;5014655;28;20530;-68
2023/08/10 10:37:15;;;;;;;0.60;0.60;;;;;;;26.08;30.47;96438.03;5014574;28;20060;-69
2023/08/10 10:39:43;;;;;;;1.00;0.77;;;;;;;26.23;30.28;96440.97;5014808;28;20050;-69
2023/08/10 10:42:11;;;;;;;0.75;0.65;;;;;;;26.32;31.32;96436.53;5014639;28;20133;-69
2023/08/10 10:45:03;;;;;;;0.65;0.65;;;;;;;26.47;29.83;96431.38;5014536;28;20050;-69
2023/08/10 10:47:38;;;;;;;2.47;0.50;;;;;;;26.86;31.47;96443.41;5014453;28;20050;-68
2023/08/10 10:50:16;;;;;;;0.73;0.70;;;;;;;27.17;29.29;96433.06;5014586;28;20049;-69
2023/08/10 10:52:55;;;;;;;1.50;0.82;;;;;;;27.33;29.21;96438.47;5014351;28;20085;-69
2023/08/10 10:55:23;;;;;;;1.30;0.82;;;;;;;26.86;29.66;96439.88;5014234;28;20137;-69
2023/08/10 10:57:51;;;;;;;0.95;0.73;;;;;;;26.53;30.34;96445.13;5014353;28;20077;-68
2023/08/10 11:00:20;;;;;;;0.80;0.80;;;;;;;26.54;29.66;96439.59;5014397;28;20515;-69
2023/08/10 11:02:48;;;;;;;1.42;0.80;;;;;;;26.19;30.04;96436.91;5014135;28;20071;-68
2023/08/10 11:05:16;;;;;;;0.70;0.70;;;;;;;25.97;30.63;96435.63;5014200;28;20085;-69
2023/08/10 11:07:45;;;;;;;2.05;0.73;;;;;;;25.79;30.31;96439.19;5014395;28;20076;-68
2023/08/10 11:10:15;;;;;;;0.80;0.70;;;;;;;25.76;30.39;96436.00;5014186;28;20049;-68
2023/08/10 11:12:45;;;;;;;2.20;0.80;;;;;;;25.70;30.76;96438.31;5014059;28;20137;-68
2023/08/10 11:15:14;;;;;;;0.80;0.80;;;;;;;25.70;30.64;96432.94;5013927;28;20057;-68
2023/08/10 11:17:42;;;;;;;0.73;0.60;;;;;;;25.65;30.59;96432.59;5014129;28;20125;-68
2023/08/10 11:20:14;;;;;;;1.98;0.90;;;;;;;25.65;31.44;96437.09;5013965;28;20058;-68
2023/08/10 11:22:42;;;;;;;1.00;0.80;;;;;;;25.63;30.96;96439.06;5013914;28;20057;-69
2023/08/10 11:25:11;;;;;;;0.98;0.90;;;;;;;25.53;31.34;96429.28;5013978;28;20045;-68
2023/08/10 11:27:42;;;;;;;1.30;0.80;;;;;;;25.59;31.73;96438.53;5013905;28;20049;-69
2023/08/10 11:30:11;;;;;;;1.38;0.93;;;;;;;25.78;32.37;96425.97;5013887;28;20058;-68
2023/08/10 11:32:41;;;;;;;1.52;0.98;;;;;;;25.91;31.20;96429.06;5013675;28;20384;-68
2023/08/10 11:35:09;;;;;;;0.98;0.80;;;;;;;25.92;31.58;96425.41;5013951;28;20132;-68
2023/08/10 11:37:38;;;;;;;2.30;0.98;;;;;;;25.74;31.67;96442.34;5013468;28;20052;-68
2023/08/10 11:40:12;;;;;;;1.10;1.00;;;;;;;25.68;31.33;96443.00;5013577;28;20427;-68